Mount Vernon, Ohio
Current Conditions -  °F | °C
As of 2:35 PM on Thursday 18 Dec 2014 (Local Time) from K4I3 Reporting Station
Overcast Overcast  
Wind Chill: 20°   Ceiling: 1500
Heat Index: 27°   Visibility: 10mi
Dew Point: 23°   Wind: 6mph
Humidity: 86%   Direction: 240°WSW
Pressure: 30.18"   Gusts: NA
Location:  40.39°N, 82.48°W
Report Text: K4I3 181935Z AUTO 24005KT 10SM OVC015 M03/M05 A3018 RMK AO2
Loading
Personal Weather Stations






























Interactive Weather Map New forecast layout! Learn more

10-Day Weather Forecast

Advertisements
Track Severe Weather on mobile